Cordell Hull Observed Data For Previous 48 Hours

Caption
Day and Hour Reservoir Elevation (behind dam)* Tailwater Elevation (below dam)* Average Hourly Discharge*
1/16/2019 1 AM CST 500.97 458.87 28,725
1/16/2019 2 AM CST 500.99 458.89 29,030
1/16/2019 3 AM CST 501.01 458.81 28,950
1/16/2019 4 AM CST 500.95 458.85 28,475
1/16/2019 5 AM CST 500.90 458.90 29,100
1/16/2019 6 AM CST 500.89 458.89 28,850
1/16/2019 7 AM CST 500.89 458.89 28,800
1/16/2019 8 AM CST 500.88 458.88 29,100
1/16/2019 9 AM CST 500.88 458.88 29,100
1/16/2019 10 AM CST 500.86 458.86 28,850
1/16/2019 11 AM CST 500.84 458.94 28,885
1/16/2019 12 PM CST 500.85 458.85 28,800
1/16/2019 1 PM CST 500.84 458.84 28,850
1/16/2019 2 PM CST 500.83 458.93 28,885
1/16/2019 3 PM CST 500.82 458.92 29,190
1/16/2019 4 PM CST 500.81 458.91 29,190
1/16/2019 5 PM CST 500.80 458.90 28,935
1/16/2019 6 PM CST 500.79 458.89 28,885
1/16/2019 7 PM CST 500.78 458.88 29,190
1/16/2019 8 PM CST 500.78 458.88 28,630
1/16/2019 9 PM CST 500.77 458.87 29,190
1/16/2019 10 PM CST 500.77 458.87 28,885
1/16/2019 11 PM CST 500.77 458.87 28,935
1/17/2019 12 AM CST 500.76 458.86 28,885
1/17/2019 1 AM CST 500.75 458.85 28,885
1/17/2019 2 AM CST 500.74 458.94 29,020
1/17/2019 3 AM CST 500.74 458.94 28,970
1/17/2019 4 AM CST 500.73 458.93 29,020
1/17/2019 5 AM CST 500.72 458.92 28,970
1/17/2019 6 AM CST 500.71 458.81 28,630
1/17/2019 7 AM CST 500.70 458.90 29,280
1/17/2019 8 AM CST 500.70 458.90 28,350
1/17/2019 9 AM CST 500.70 458.90 29,280
1/17/2019 10 AM CST 500.71 458.91 28,900
1/17/2019 11 AM CST 500.71 458.91 28,970
1/17/2019 12 PM CST 500.70 458.90 28,970
1/17/2019 1 PM CST 500.46 460.76 36,060
1/17/2019 2 PM CST 500.69 459.89 36,700
1/17/2019 3 PM CST 500.56 459.86 31,105
1/17/2019 4 PM CST 500.49 459.89 30,840
1/17/2019 5 PM CST 500.45 459.95 30,600
1/17/2019 6 PM CST 500.39 459.99 31,040

Elevations are in feet above sea level. Discharges are in cubic feet per second and are reported at the end of the hour.